createdAt,value
2019-01-20T00:01:14.449Z,25.57
2019-01-20T00:03:43.880Z,30.50
2019-01-20T00:06:13.345Z,30.90
2019-01-20T00:08:42.748Z,32.97
2019-01-20T00:11:16.571Z,28.47
2019-01-20T00:13:45.144Z,26.63
2019-01-20T00:16:14.744Z,27.57
2019-01-20T00:18:44.336Z,31.30
2019-01-20T00:21:13.777Z,29.80
2019-01-20T00:23:43.308Z,30.87
2019-01-20T00:26:12.740Z,27.57
2019-01-20T00:28:43.736Z,32.07
2019-01-20T00:31:13.162Z,28.77
2019-01-20T00:33:42.639Z,33.43
2019-01-20T00:36:12.047Z,33.00
2019-01-20T00:38:41.574Z,38.60
2019-01-20T00:41:11.016Z,33.17
2019-01-20T00:43:48.267Z,41.57
2019-01-20T00:46:17.682Z,35.70
2019-01-20T00:48:47.504Z,34.47
2019-01-20T00:51:17.025Z,32.23
2019-01-20T00:53:46.466Z,32.60
2019-01-20T00:56:15.976Z,34.23
2019-01-20T00:58:58.302Z,33.73
2019-01-20T01:01:27.771Z,30.27
2019-01-20T01:03:57.238Z,32.73
2019-01-20T01:06:26.747Z,33.30
2019-01-20T01:08:56.166Z,28.67
2019-01-20T01:11:31.595Z,29.47
2019-01-20T01:13:57.105Z,34.73
2019-01-20T01:16:26.534Z,37.50
2019-01-20T01:18:56.122Z,35.33
2019-01-20T01:21:25.568Z,34.43
2019-01-20T01:23:55.066Z,34.07
2019-01-20T01:26:24.524Z,36.37
2019-01-20T01:28:54.298Z,33.57
2019-01-20T01:31:23.759Z,39.77
2019-01-20T01:33:53.239Z,37.60
2019-01-20T01:36:22.689Z,32.57
2019-01-20T01:38:52.152Z,36.67
2019-01-20T01:41:21.555Z,37.00
2019-01-20T01:43:51.069Z,37.43
2019-01-20T01:46:20.497Z,33.80
2019-01-20T01:48:50.041Z,37.77
2019-01-20T01:51:19.426Z,36.80
2019-01-20T01:53:48.903Z,38.43
2019-01-20T01:56:18.380Z,37.00
2019-01-20T01:58:47.808Z,40.87
2019-01-20T02:01:17.341Z,33.37
2019-01-20T02:03:46.816Z,33.27
2019-01-20T02:06:16.258Z,35.30
2019-01-20T02:08:45.740Z,38.20
2019-01-20T02:11:15.229Z,39.67
2019-01-20T02:13:44.714Z,45.57
2019-01-20T02:16:14.190Z,35.87
2019-01-20T02:18:43.687Z,36.67
2019-01-20T02:21:13.196Z,43.23
2019-01-20T02:23:43.019Z,39.07
2019-01-20T02:26:12.473Z,35.80
2019-01-20T02:28:41.969Z,44.23
2019-01-20T02:31:12.207Z,40.63
2019-01-20T02:33:41.690Z,37.20
2019-01-20T02:36:11.110Z,39.43
2019-01-20T02:38:41.745Z,39.13
2019-01-20T02:41:11.206Z,36.33
2019-01-20T02:43:40.762Z,39.80
2019-01-20T02:46:10.599Z,43.40
2019-01-20T02:48:40.111Z,38.57
2019-01-20T02:51:09.537Z,41.63
2019-01-20T02:53:38.902Z,42.17
2019-01-20T02:56:08.422Z,40.30
2019-01-20T02:58:37.822Z,38.63
2019-01-20T03:01:07.390Z,39.90
2019-01-20T03:03:37.163Z,38.63
2019-01-20T03:06:06.625Z,40.63
2019-01-20T03:08:36.017Z,38.10
2019-01-20T03:11:05.517Z,40.93
2019-01-20T03:13:34.997Z,37.43
2019-01-20T03:16:04.651Z,42.73
2019-01-20T03:18:35.887Z,41.53
2019-01-20T03:21:06.133Z,37.30
2019-01-20T03:23:35.593Z,38.30
2019-01-20T03:26:05.389Z,41.67
2019-01-20T03:28:34.856Z,39.43
2019-01-20T03:31:04.663Z,44.53
2019-01-20T03:33:34.098Z,38.03
2019-01-20T03:36:05.093Z,38.90
2019-01-20T03:38:34.633Z,279.67
2019-01-20T03:41:04.231Z,37.53
2019-01-20T03:43:33.717Z,41.57
2019-01-20T03:46:03.188Z,38.07
2019-01-20T03:48:32.654Z,42.23
2019-01-20T03:51:03.985Z,43.93
2019-01-20T03:53:33.532Z,43.43
2019-01-20T03:56:03.157Z,45.93
2019-01-20T03:58:32.827Z,41.80
2019-01-20T04:01:02.304Z,46.47
2019-01-20T04:03:31.707Z,40.27
2019-01-20T04:06:03.096Z,44.03
2019-01-20T04:08:33.005Z,48.17
2019-01-20T04:11:02.523Z,49.97
2019-01-20T04:13:32.006Z,48.07
2019-01-20T04:16:01.411Z,49.47
2019-01-20T04:18:30.858Z,46.17
2019-01-20T04:21:04.629Z,48.53
2019-01-20T04:23:31.478Z,52.93
2019-01-20T04:26:00.959Z,50.37
2019-01-20T04:28:30.783Z,43.67
2019-01-20T04:31:00.234Z,48.73
2019-01-20T04:33:29.668Z,44.33
2019-01-20T04:35:59.197Z,48.17
2019-01-20T04:38:28.680Z,45.63
2019-01-20T04:40:58.100Z,54.97
2019-01-20T04:43:27.548Z,60.63
2019-01-20T04:45:57.011Z,51.13
2019-01-20T04:48:26.538Z,48.97
2019-01-20T04:50:55.969Z,43.73
2019-01-20T04:53:26.432Z,49.87
2019-01-20T04:55:55.925Z,50.40
2019-01-20T04:58:25.575Z,54.87
2019-01-20T05:00:55.383Z,48.03
2019-01-20T05:03:24.866Z,46.60
2019-01-20T05:05:54.342Z,41.17
2019-01-20T05:08:23.881Z,51.73
2019-01-20T05:10:53.420Z,46.37
2019-01-20T05:13:23.245Z,50.07
2019-01-20T05:15:52.747Z,53.90
2019-01-20T05:18:22.157Z,50.13
2019-01-20T05:20:51.716Z,46.33
2019-01-20T05:23:21.465Z,49.67
2019-01-20T05:25:50.944Z,48.50
2019-01-20T05:28:20.373Z,47.13
2019-01-20T05:30:49.880Z,48.47
2019-01-20T05:33:19.389Z,51.23
2019-01-20T05:35:49.027Z,46.37
2019-01-20T05:38:18.455Z,48.30
2019-01-20T05:40:47.914Z,52.53
2019-01-20T05:43:17.331Z,42.23
2019-01-20T05:45:46.885Z,50.00
2019-01-20T05:48:16.405Z,52.17
2019-01-20T05:50:45.840Z,50.47
2019-01-20T05:53:15.288Z,44.73
2019-01-20T05:55:44.709Z,45.97
2019-01-20T05:58:14.162Z,51.47
2019-01-20T06:00:43.967Z,59.57
2019-01-20T06:03:13.404Z,51.10
2019-01-20T06:05:42.908Z,53.20
2019-01-20T06:08:12.429Z,54.27
2019-01-20T06:10:41.957Z,49.47
2019-01-20T06:13:11.415Z,59.00
2019-01-20T06:15:40.834Z,58.20
2019-01-20T06:18:10.326Z,49.70
2019-01-20T06:20:39.950Z,54.83
2019-01-20T06:23:09.401Z,55.97
2019-01-20T06:25:38.910Z,52.43
2019-01-20T06:28:08.885Z,50.23
2019-01-20T06:30:44.955Z,52.33
2019-01-20T06:33:15.436Z,42.50
2019-01-20T06:35:45.166Z,49.30
2019-01-20T06:38:14.659Z,47.10
2019-01-20T06:40:44.083Z,44.37
2019-01-20T06:43:13.809Z,49.00
2019-01-20T06:45:43.304Z,46.47
2019-01-20T06:48:12.790Z,49.30
2019-01-20T06:50:42.282Z,49.60
2019-01-20T06:53:11.793Z,51.17
2019-01-20T06:55:41.274Z,51.37
2019-01-20T06:58:11.180Z,52.20
2019-01-20T07:00:40.626Z,54.73
2019-01-20T07:03:10.138Z,48.57
2019-01-20T07:05:39.513Z,45.67
2019-01-20T07:08:08.975Z,50.93
2019-01-20T07:10:38.496Z,51.63
2019-01-20T07:13:10.126Z,46.30
2019-01-20T07:15:39.105Z,43.30
2019-01-20T07:18:09.867Z,48.33
2019-01-20T07:20:39.995Z,52.13
2019-01-20T07:23:09.782Z,48.97
2019-01-20T07:25:39.825Z,48.60
2019-01-20T07:28:09.266Z,50.63
2019-01-20T07:30:38.713Z,48.93
2019-01-20T07:33:08.429Z,44.20
2019-01-20T07:35:37.938Z,43.33
2019-01-20T07:38:07.359Z,39.20
2019-01-20T07:40:36.986Z,43.07
2019-01-20T07:43:06.832Z,39.93
2019-01-20T07:45:36.266Z,44.53
2019-01-20T07:48:06.034Z,40.33
2019-01-20T07:50:35.919Z,43.53
2019-01-20T07:53:05.406Z,43.03
2019-01-20T07:55:34.935Z,47.97
2019-01-20T07:58:04.454Z,50.50
2019-01-20T08:00:33.937Z,43.90
2019-01-20T08:03:03.369Z,45.87
2019-01-20T08:05:32.794Z,44.47
2019-01-20T08:08:02.305Z,42.17
2019-01-20T08:10:32.088Z,37.83
2019-01-20T08:13:01.594Z,49.03
2019-01-20T08:15:31.876Z,44.43
2019-01-20T08:18:01.369Z,47.17
2019-01-20T08:20:30.890Z,36.93
2019-01-20T08:23:00.348Z,52.90
2019-01-20T08:25:29.889Z,36.87
2019-01-20T08:27:59.668Z,47.57
2019-01-20T08:30:30.111Z,39.33
2019-01-20T08:32:59.593Z,40.43
2019-01-20T08:35:29.064Z,42.00
2019-01-20T08:37:58.619Z,38.53
2019-01-20T08:40:32.114Z,39.27
2019-01-20T08:43:02.061Z,40.97
2019-01-20T08:46:19.880Z,37.63
2019-01-20T08:48:49.332Z,42.47
2019-01-20T08:51:18.745Z,39.90
2019-01-20T08:53:48.253Z,39.03
2019-01-20T08:56:17.717Z,39.30
2019-01-20T08:58:47.203Z,38.60
2019-01-20T09:01:19.422Z,40.83
2019-01-20T09:03:52.821Z,44.73
2019-01-20T09:06:22.309Z,42.47
2019-01-20T09:08:51.829Z,41.97
2019-01-20T09:11:21.664Z,42.73
2019-01-20T09:13:51.150Z,43.33
2019-01-20T09:16:20.647Z,38.30
2019-01-20T09:18:50.072Z,43.17
2019-01-20T09:21:19.876Z,43.50
2019-01-20T09:23:49.347Z,43.40
2019-01-20T09:26:18.757Z,39.70
2019-01-20T09:28:48.261Z,38.97
2019-01-20T09:31:17.656Z,39.77
2019-01-20T09:33:47.198Z,37.80
2019-01-20T09:36:16.688Z,38.07
2019-01-20T09:38:46.155Z,39.60
2019-01-20T09:41:15.727Z,37.43
2019-01-20T09:43:47.302Z,39.77
2019-01-20T09:46:16.639Z,36.30
2019-01-20T09:48:46.129Z,41.10
2019-01-20T09:51:15.600Z,39.80
2019-01-20T09:53:45.049Z,38.00
2019-01-20T09:56:14.679Z,37.83
2019-01-20T09:58:44.288Z,38.53
2019-01-20T10:01:13.757Z,37.60
2019-01-20T10:03:43.275Z,35.47
2019-01-20T10:06:12.701Z,39.83
2019-01-20T10:08:42.236Z,41.67
2019-01-20T10:11:11.702Z,35.90
2019-01-20T10:13:41.217Z,39.10
2019-01-20T10:16:11.126Z,38.50
2019-01-20T10:18:40.959Z,39.70
2019-01-20T10:21:10.577Z,39.47
2019-01-20T10:23:40.139Z,38.13
2019-01-20T10:26:09.919Z,37.93
2019-01-20T10:28:43.793Z,39.33
2019-01-20T10:31:13.388Z,35.83
2019-01-20T10:33:42.901Z,32.40
2019-01-20T10:36:12.403Z,30.87
2019-01-20T10:38:41.859Z,34.17
2019-01-20T10:41:11.380Z,34.37
2019-01-20T10:43:40.884Z,35.50
2019-01-20T10:46:11.130Z,36.13
2019-01-20T10:48:40.595Z,36.03
2019-01-20T10:51:10.162Z,36.43
2019-01-20T10:53:39.704Z,33.57
2019-01-20T10:56:09.246Z,35.23
2019-01-20T10:58:39.906Z,36.20
2019-01-20T11:01:10.095Z,33.10
2019-01-20T11:03:39.622Z,31.53
2019-01-20T11:06:09.105Z,37.07
2019-01-20T11:08:39.113Z,37.50
2019-01-20T11:11:08.709Z,33.77
2019-01-20T11:14:09.645Z,30.63
2019-01-20T11:16:39.374Z,27.57
2019-01-20T11:19:08.883Z,30.77
2019-01-20T11:21:38.453Z,27.90
2019-01-20T11:24:07.962Z,27.10
2019-01-20T11:26:37.591Z,31.43
2019-01-20T11:29:07.080Z,26.53
2019-01-20T11:31:36.595Z,27.63
2019-01-20T11:34:06.053Z,31.83
2019-01-20T11:36:35.654Z,17.20
2019-01-20T11:39:08.890Z,27.13
2019-01-20T11:41:38.380Z,24.37
2019-01-20T11:44:08.008Z,22.63
2019-01-20T11:46:37.418Z,25.10
2019-01-20T11:49:07.037Z,30.93
2019-01-20T11:51:36.659Z,25.43
2019-01-20T11:54:06.416Z,25.83
2019-01-20T11:56:35.864Z,24.60
2019-01-20T11:59:05.489Z,30.23
2019-01-20T12:01:34.986Z,32.93
2019-01-20T12:04:04.482Z,28.30
2019-01-20T12:06:34.063Z,20.50
2019-01-20T12:09:04.248Z,26.87
2019-01-20T12:11:33.775Z,31.33
2019-01-20T12:14:03.233Z,25.27
2019-01-20T12:16:32.940Z,28.30
2019-01-20T12:19:02.698Z,19.63
2019-01-20T12:21:32.435Z,21.37
2019-01-20T12:24:02.042Z,29.17
2019-01-20T12:26:31.488Z,28.73
2019-01-20T12:29:01.142Z,29.20
2019-01-20T12:31:32.590Z,31.27
2019-01-20T12:34:02.154Z,35.63
2019-01-20T12:36:31.629Z,30.13
2019-01-20T12:39:01.263Z,31.77
2019-01-20T12:41:30.800Z,30.40
2019-01-20T12:44:00.369Z,31.87
2019-01-20T12:46:29.864Z,30.33
2019-01-20T12:49:00.500Z,31.83
2019-01-20T12:51:29.951Z,28.07
2019-01-20T12:53:59.466Z,30.00
2019-01-20T12:56:29.246Z,29.70
2019-01-20T12:58:58.655Z,28.10
2019-01-20T13:01:28.121Z,30.17
2019-01-20T13:03:57.570Z,29.23
2019-01-20T13:06:27.069Z,30.60
2019-01-20T13:08:56.773Z,31.40
2019-01-20T13:11:26.206Z,28.13
2019-01-20T13:13:55.681Z,35.00
2019-01-20T13:16:25.116Z,27.47
2019-01-20T13:18:54.942Z,27.60
2019-01-20T13:21:24.543Z,29.63
2019-01-20T13:23:53.975Z,32.07
2019-01-20T13:26:23.567Z,29.07
2019-01-20T13:28:53.126Z,33.80
2019-01-20T13:31:22.602Z,34.03
2019-01-20T13:33:52.128Z,30.50
2019-01-20T13:36:21.930Z,31.10
2019-01-20T13:38:51.379Z,31.93
2019-01-20T13:41:26.859Z,31.23
2019-01-20T13:43:57.336Z,29.73
2019-01-20T13:46:26.886Z,31.00
2019-01-20T13:49:07.048Z,33.00
2019-01-20T13:51:36.528Z,36.10
2019-01-20T13:54:06.338Z,34.03
2019-01-20T13:56:35.862Z,29.33
2019-01-20T13:59:05.912Z,35.23
2019-01-20T14:01:35.337Z,30.60
2019-01-20T14:04:04.901Z,32.27
2019-01-20T14:06:34.355Z,31.57
2019-01-20T14:09:05.480Z,31.27
2019-01-20T14:11:34.966Z,29.20
2019-01-20T14:14:04.884Z,31.50
2019-01-20T14:16:34.760Z,29.70
2019-01-20T14:19:04.246Z,30.30
2019-01-20T14:21:33.708Z,49.97
2019-01-20T14:24:03.106Z,38.90
2019-01-20T14:26:34.112Z,44.13
2019-01-20T14:29:03.812Z,38.00
2019-01-20T14:31:33.381Z,40.40
2019-01-20T14:34:02.800Z,40.70
2019-01-20T14:36:32.261Z,52.90
2019-01-20T14:39:01.787Z,87.57
2019-01-20T14:41:31.829Z,48.43
2019-01-20T14:44:01.486Z,131.67
2019-01-20T14:46:30.877Z,170.13
2019-01-20T14:49:00.842Z,73.83
2019-01-20T14:51:30.901Z,46.63
2019-01-20T14:54:00.619Z,57.43
2019-01-20T14:56:30.103Z,32.47
2019-01-20T14:58:59.539Z,30.63
2019-01-20T15:01:29.011Z,36.20
2019-01-20T15:04:46.167Z,32.30
2019-01-20T15:07:15.992Z,37.23
2019-01-20T15:09:46.722Z,45.67
2019-01-20T15:12:16.189Z,42.03
2019-01-20T15:14:46.383Z,35.17
2019-01-20T15:17:15.973Z,39.03
2019-01-20T15:19:45.754Z,36.80
2019-01-20T15:22:15.380Z,35.60
2019-01-20T15:24:47.486Z,35.63
2019-01-20T15:27:18.175Z,33.73
2019-01-20T15:29:47.991Z,38.73
2019-01-20T15:32:17.768Z,36.23
2019-01-20T15:34:47.267Z,41.30
2019-01-20T15:37:16.732Z,42.73
2019-01-20T15:39:46.169Z,40.70
2019-01-20T15:42:15.669Z,41.53
2019-01-20T15:44:45.177Z,49.43
2019-01-20T15:47:14.865Z,42.13
2019-01-20T15:49:44.282Z,45.07
2019-01-20T15:52:14.380Z,45.10
2019-01-20T15:54:43.902Z,43.87
2019-01-20T15:57:14.359Z,41.70
2019-01-20T15:59:43.820Z,42.77
2019-01-20T16:02:13.321Z,55.47
2019-01-20T16:04:43.146Z,48.13
2019-01-20T16:07:12.932Z,43.30
2019-01-20T16:09:42.737Z,43.67
2019-01-20T16:12:12.677Z,45.63
2019-01-20T16:14:42.089Z,42.03
2019-01-20T16:17:11.472Z,41.73
2019-01-20T16:19:41.119Z,41.33
2019-01-20T16:22:10.524Z,40.47
2019-01-20T16:24:40.360Z,45.13
2019-01-20T16:27:10.147Z,46.23
2019-01-20T16:29:39.604Z,44.63
2019-01-20T16:32:09.232Z,45.47
2019-01-20T16:34:38.778Z,39.50
2019-01-20T16:37:08.807Z,47.90
2019-01-20T16:39:39.256Z,46.63
2019-01-20T16:42:09.154Z,44.87
2019-01-20T16:44:39.524Z,48.63
2019-01-20T16:47:09.718Z,50.23
2019-01-20T16:49:39.207Z,63.27
2019-01-20T16:52:08.774Z,68.60
2019-01-20T16:54:38.227Z,85.00
2019-01-20T16:57:08.060Z,94.43
2019-01-20T16:59:37.541Z,88.73
2019-01-20T17:02:07.034Z,75.40
2019-01-20T17:04:36.650Z,72.70
2019-01-20T17:07:06.254Z,68.07
2019-01-20T17:09:35.752Z,61.23
2019-01-20T17:12:05.634Z,66.03
2019-01-20T17:14:35.070Z,63.70
2019-01-20T17:17:04.776Z,60.93
2019-01-20T17:19:34.591Z,62.50
2019-01-20T17:22:04.221Z,64.70
2019-01-20T17:24:34.809Z,63.30
2019-01-20T17:27:04.586Z,63.60
2019-01-20T17:29:34.797Z,59.13
2019-01-20T17:32:04.568Z,62.13
2019-01-20T17:34:34.100Z,62.83
2019-01-20T17:37:03.577Z,70.03
2019-01-20T17:39:33.506Z,69.33
2019-01-20T17:42:02.970Z,68.23
2019-01-20T17:44:32.592Z,72.03
2019-01-20T17:47:02.097Z,71.83
2019-01-20T17:49:31.551Z,71.63
2019-01-20T17:52:01.121Z,65.73
2019-01-20T17:54:30.539Z,67.93
2019-01-20T17:57:00.101Z,65.73
2019-01-20T17:59:30.139Z,66.90
2019-01-20T18:01:59.651Z,92.40
2019-01-20T18:04:29.123Z,113.70
2019-01-20T18:06:58.558Z,133.73
2019-01-20T18:09:30.897Z,83.13
2019-01-20T18:12:00.431Z,73.37
2019-01-20T18:14:29.985Z,76.33
2019-01-20T18:16:59.406Z,73.83
2019-01-20T18:19:28.961Z,73.00
2019-01-20T18:21:58.472Z,87.67
2019-01-20T18:24:28.413Z,69.17
2019-01-20T18:26:58.039Z,70.43
2019-01-20T18:29:27.541Z,75.33
2019-01-20T18:31:57.089Z,70.70
2019-01-20T18:34:26.538Z,72.80
2019-01-20T18:36:55.956Z,70.17
2019-01-20T18:39:28.254Z,74.33
2019-01-20T18:41:57.696Z,67.23
2019-01-20T18:44:27.238Z,67.07
2019-01-20T18:46:56.643Z,77.53
2019-01-20T18:49:26.154Z,79.37
2019-01-20T18:51:55.615Z,83.60
2019-01-20T18:57:36.207Z,199.27
2019-01-20T19:00:09.012Z,124.83
2019-01-20T19:02:38.498Z,146.43
2019-01-20T19:05:11.360Z,78.93
2019-01-20T19:07:41.199Z,105.00
2019-01-20T19:10:11.807Z,94.93
2019-01-20T19:12:41.420Z,97.70
2019-01-20T19:15:12.520Z,81.47
2019-01-20T19:17:41.928Z,80.97
2019-01-20T19:20:14.049Z,76.07
2019-01-20T19:22:43.939Z,83.67
2019-01-20T19:25:13.728Z,83.60
2019-01-20T19:27:43.374Z,81.83
2019-01-20T19:30:16.046Z,79.73
2019-01-20T19:32:51.886Z,81.50
2019-01-20T19:35:21.410Z,77.03
2019-01-20T19:37:50.874Z,77.93
2019-01-20T19:40:20.620Z,82.33
2019-01-20T19:43:00.483Z,98.00
2019-01-20T19:45:30.722Z,75.03
2019-01-20T19:48:00.184Z,79.87
2019-01-20T19:50:29.688Z,78.23
2019-01-20T19:52:59.102Z,76.03
2019-01-20T19:55:30.903Z,81.33
2019-01-20T19:58:00.440Z,80.80
2019-01-20T20:00:31.062Z,80.53
2019-01-20T20:03:00.745Z,82.03
2019-01-20T20:05:30.930Z,108.67
2019-01-20T20:08:00.441Z,128.23
2019-01-20T20:10:30.075Z,93.37
2019-01-20T20:12:59.798Z,97.87
2019-01-20T20:15:30.678Z,107.40
2019-01-20T20:18:00.302Z,84.40
2019-01-20T20:20:29.718Z,100.80
2019-01-20T20:22:59.556Z,94.57
2019-01-20T20:25:29.012Z,87.30
2019-01-20T20:27:58.683Z,86.73
2019-01-20T20:30:36.452Z,86.77
2019-01-20T20:33:06.767Z,84.60
2019-01-20T20:35:36.330Z,80.20
2019-01-20T20:38:05.880Z,80.73
2019-01-20T20:40:35.394Z,88.27
2019-01-20T20:43:08.370Z,91.97
2019-01-20T20:45:37.826Z,93.83
2019-01-20T20:48:07.308Z,88.47
2019-01-20T20:50:36.828Z,84.90
2019-01-20T20:53:06.432Z,86.13
2019-01-20T20:55:35.951Z,82.37
2019-01-20T20:58:07.069Z,80.90
2019-01-20T21:00:41.933Z,81.50
2019-01-20T21:03:19.077Z,79.80
2019-01-20T21:05:51.140Z,81.73
2019-01-20T21:08:24.689Z,75.37
2019-01-20T21:11:08.044Z,79.27
2019-01-20T21:13:37.700Z,84.67
2019-01-20T21:16:13.288Z,84.73
2019-01-20T21:18:43.830Z,79.40
2019-01-20T21:21:13.301Z,81.17
2019-01-20T21:23:42.978Z,87.60
2019-01-20T21:26:12.798Z,77.33
2019-01-20T21:28:47.640Z,75.43
2019-01-20T21:31:22.423Z,69.03
2019-01-20T21:33:52.068Z,79.60
2019-01-20T21:36:21.596Z,75.37
2019-01-20T21:38:51.774Z,76.80
2019-01-20T21:41:21.427Z,80.03
2019-01-20T21:43:51.032Z,71.50
2019-01-20T21:46:21.373Z,80.13
2019-01-20T21:48:56.403Z,77.00
2019-01-20T21:51:26.857Z,79.73
2019-01-20T21:53:59.102Z,84.00
2019-01-20T21:56:30.886Z,79.37
2019-01-20T21:59:00.419Z,75.90
2019-01-20T22:01:30.231Z,80.07
2019-01-20T22:04:00.245Z,81.40
2019-01-20T22:06:34.529Z,79.13
2019-01-20T22:09:06.556Z,85.40
2019-01-20T22:11:35.957Z,84.47
2019-01-20T22:14:05.963Z,91.87
2019-01-20T22:16:36.693Z,82.00
2019-01-20T22:19:06.465Z,83.30
2019-01-20T22:21:35.925Z,80.63
2019-01-20T22:24:05.663Z,86.27
2019-01-20T22:26:35.806Z,89.47
2019-01-20T22:29:05.345Z,82.20
2019-01-20T22:31:36.098Z,88.77
2019-01-20T22:34:06.610Z,85.43
2019-01-20T22:36:36.022Z,83.03
2019-01-20T22:39:09.572Z,83.60
2019-01-20T22:41:39.020Z,77.67
2019-01-20T22:44:09.021Z,72.50
2019-01-20T22:46:38.484Z,83.00
2019-01-20T22:49:08.378Z,82.37
2019-01-20T22:51:38.259Z,77.37
2019-01-20T22:54:08.094Z,83.77
2019-01-20T22:56:37.604Z,86.23
2019-01-20T22:59:07.475Z,78.43
2019-01-20T23:01:37.264Z,91.23
2019-01-20T23:04:07.112Z,86.07
2019-01-20T23:06:37.871Z,83.83
2019-01-20T23:09:08.550Z,86.77
2019-01-20T23:11:38.012Z,89.70
2019-01-20T23:14:07.477Z,106.93
2019-01-20T23:16:37.019Z,96.27
2019-01-20T23:19:06.430Z,99.10
2019-01-20T23:21:37.830Z,93.40
2019-01-20T23:24:08.609Z,95.07
2019-01-20T23:26:38.031Z,89.97
2019-01-20T23:29:07.607Z,91.73
2019-01-20T23:31:37.099Z,86.20
2019-01-20T23:34:06.682Z,84.17
2019-01-20T23:36:36.364Z,85.83
2019-01-20T23:39:07.887Z,92.23
2019-01-20T23:41:38.541Z,90.57
2019-01-20T23:44:08.100Z,85.00
2019-01-20T23:46:37.597Z,94.20
2019-01-20T23:49:07.146Z,95.30
2019-01-20T23:51:36.656Z,96.90
2019-01-20T23:54:06.095Z,84.50
2019-01-20T23:56:35.563Z,93.60
2019-01-20T23:59:04.957Z,91.23
